sensor_id;sensor_type;location;lat;lon;timestamp;P1;P2;P0
65574;PMS5003;73096;55.050;73.422;2023-12-22T00:01:28;5.00;4.00;0.00
65574;PMS5003;73096;55.050;73.422;2023-12-22T00:04:30;6.25;6.00;2.25
65574;PMS5003;73096;55.050;73.422;2023-12-22T00:07:32;8.00;6.00;2.50
65574;PMS5003;73096;55.050;73.422;2023-12-22T00:10:35;6.50;4.25;2.00
65574;PMS5003;73096;55.050;73.422;2023-12-22T00:13:37;5.00;5.00;1.00
65574;PMS5003;73096;55.050;73.422;2023-12-22T00:16:39;5.25;5.25;2.00
65574;PMS5003;73096;55.050;73.422;2023-12-22T00:19:41;5.00;4.00;2.67
65574;PMS5003;73096;55.050;73.422;2023-12-22T00:22:43;6.00;5.00;1.00
65574;PMS5003;73096;55.050;73.422;2023-12-22T00:25:46;6.00;4.25;1.00
65574;PMS5003;73096;55.050;73.422;2023-12-22T00:28:48;6.00;5.00;3.00
65574;PMS5003;73096;55.050;73.422;2023-12-22T00:31:51;6.00;4.67;2.00
65574;PMS5003;73096;55.050;73.422;2023-12-22T00:34:52;7.00;7.00;3.00
65574;PMS5003;73096;55.050;73.422;2023-12-22T00:37:55;5.00;5.00;2.00
65574;PMS5003;73096;55.050;73.422;2023-12-22T00:40:58;6.00;5.33;3.00
65574;PMS5003;73096;55.050;73.422;2023-12-22T00:44:00;9.00;7.00;3.00
65574;PMS5003;73096;55.050;73.422;2023-12-22T00:47:03;6.25;5.00;3.00
65574;PMS5003;73096;55.050;73.422;2023-12-22T00:50:05;9.00;6.50;3.00
65574;PMS5003;73096;55.050;73.422;2023-12-22T00:53:08;6.00;6.00;2.00
65574;PMS5003;73096;55.050;73.422;2023-12-22T00:56:10;11.50;8.00;3.00
65574;PMS5003;73096;55.050;73.422;2023-12-22T00:59:16;12.00;7.50;3.00
65574;PMS5003;73096;55.050;73.422;2023-12-22T01:02:18;12.00;7.75;4.00
65574;PMS5003;73096;55.050;73.422;2023-12-22T01:05:21;12.75;11.25;5.50
65574;PMS5003;73096;55.050;73.422;2023-12-22T01:08:24;15.00;14.00;4.75
65574;PMS5003;73096;55.050;73.422;2023-12-22T01:11:27;16.25;14.00;5.25
65574;PMS5003;73096;55.050;73.422;2023-12-22T01:14:30;17.50;13.75;6.00
65574;PMS5003;73096;55.050;73.422;2023-12-22T01:17:32;14.00;13.00;5.00
65574;PMS5003;73096;55.050;73.422;2023-12-22T01:20:36;14.25;12.50;5.00
65574;PMS5003;73096;55.050;73.422;2023-12-22T01:23:39;15.00;14.00;5.25
65574;PMS5003;73096;55.050;73.422;2023-12-22T01:26:42;17.00;14.00;6.00
65574;PMS5003;73096;55.050;73.422;2023-12-22T01:29:44;15.00;14.00;5.33
65574;PMS5003;73096;55.050;73.422;2023-12-22T01:32:46;15.00;15.00;6.00
65574;PMS5003;73096;55.050;73.422;2023-12-22T01:35:50;15.00;14.00;6.00
65574;PMS5003;73096;55.050;73.422;2023-12-22T01:38:53;15.00;13.25;6.00
65574;PMS5003;73096;55.050;73.422;2023-12-22T01:41:57;15.00;15.00;6.00
65574;PMS5003;73096;55.050;73.422;2023-12-22T01:45:01;15.75;14.50;6.00
65574;PMS5003;73096;55.050;73.422;2023-12-22T01:48:06;15.00;14.00;6.00
65574;PMS5003;73096;55.050;73.422;2023-12-22T01:51:10;18.00;16.00;6.00
65574;PMS5003;73096;55.050;73.422;2023-12-22T01:54:14;14.00;12.00;5.00
65574;PMS5003;73096;55.050;73.422;2023-12-22T01:57:21;14.00;12.00;4.50
65574;PMS5003;73096;55.050;73.422;2023-12-22T02:00:25;14.75;11.00;4.25
65574;PMS5003;73096;55.050;73.422;2023-12-22T02:03:28;13.00;10.75;3.50
65574;PMS5003;73096;55.050;73.422;2023-12-22T02:06:31;12.75;12.00;4.25
65574;PMS5003;73096;55.050;73.422;2023-12-22T02:09:35;12.75;11.00;5.00
65574;PMS5003;73096;55.050;73.422;2023-12-22T02:12:40;15.00;13.50;7.00
65574;PMS5003;73096;55.050;73.422;2023-12-22T02:15:42;14.25;13.00;6.00
65574;PMS5003;73096;55.050;73.422;2023-12-22T02:18:46;15.00;12.00;5.00
65574;PMS5003;73096;55.050;73.422;2023-12-22T02:22:00;19.00;13.00;5.50
65574;PMS5003;73096;55.050;73.422;2023-12-22T02:25:03;16.00;14.00;6.00
65574;PMS5003;73096;55.050;73.422;2023-12-22T02:28:07;15.00;13.00;5.00
65574;PMS5003;73096;55.050;73.422;2023-12-22T02:31:21;13.00;12.00;5.00
65574;PMS5003;73096;55.050;73.422;2023-12-22T02:34:25;13.25;12.00;4.00
65574;PMS5003;73096;55.050;73.422;2023-12-22T02:37:49;14.50;13.00;5.00
65574;PMS5003;73096;55.050;73.422;2023-12-22T02:40:52;15.00;14.00;6.00
65574;PMS5003;73096;55.050;73.422;2023-12-22T02:43:55;15.75;15.50;6.00
65574;PMS5003;73096;55.050;73.422;2023-12-22T02:46:59;16.00;14.67;6.00
65574;PMS5003;73096;55.050;73.422;2023-12-22T02:50:07;14.00;12.00;4.00
65574;PMS5003;73096;55.050;73.422;2023-12-22T02:53:09;15.00;13.00;6.00
65574;PMS5003;73096;55.050;73.422;2023-12-22T02:56:12;15.00;12.00;4.00
65574;PMS5003;73096;55.050;73.422;2023-12-22T02:59:17;12.75;10.00;4.00
65574;PMS5003;73096;55.050;73.422;2023-12-22T03:02:20;15.00;10.75;4.00
65574;PMS5003;73096;55.050;73.422;2023-12-22T03:05:24;13.00;12.75;4.00
65574;PMS5003;73096;55.050;73.422;2023-12-22T03:08:28;14.00;12.50;4.00
65574;PMS5003;73096;55.050;73.422;2023-12-22T03:11:31;12.00;11.50;4.00
65574;PMS5003;73096;55.050;73.422;2023-12-22T03:14:34;14.50;12.75;5.00
65574;PMS5003;73096;55.050;73.422;2023-12-22T03:17:37;15.00;12.00;4.00
65574;PMS5003;73096;55.050;73.422;2023-12-22T03:20:40;14.00;13.00;5.00
65574;PMS5003;73096;55.050;73.422;2023-12-22T03:23:42;19.00;14.00;6.00
65574;PMS5003;73096;55.050;73.422;2023-12-22T03:26:46;16.00;13.00;6.00
65574;PMS5003;73096;55.050;73.422;2023-12-22T03:29:48;18.00;15.67;6.00
65574;PMS5003;73096;55.050;73.422;2023-12-22T03:32:51;15.75;15.00;6.00
65574;PMS5003;73096;55.050;73.422;2023-12-22T03:35:54;15.75;14.00;6.00
65574;PMS5003;73096;55.050;73.422;2023-12-22T03:38:56;15.00;14.00;6.00
65574;PMS5003;73096;55.050;73.422;2023-12-22T03:41:59;15.00;14.00;5.00
65574;PMS5003;73096;55.050;73.422;2023-12-22T03:45:03;15.00;14.25;5.00
65574;PMS5003;73096;55.050;73.422;2023-12-22T03:48:06;15.67;15.00;6.00
65574;PMS5003;73096;55.050;73.422;2023-12-22T03:51:09;15.00;13.00;5.00
65574;PMS5003;73096;55.050;73.422;2023-12-22T03:54:14;16.00;14.50;5.75
65574;PMS5003;73096;55.050;73.422;2023-12-22T03:57:20;16.00;14.00;5.00
65574;PMS5003;73096;55.050;73.422;2023-12-22T04:00:23;16.00;13.00;6.00
65574;PMS5003;73096;55.050;73.422;2023-12-22T04:03:26;15.75;13.00;4.00
65574;PMS5003;73096;55.050;73.422;2023-12-22T04:06:29;16.25;12.75;5.00
65574;PMS5003;73096;55.050;73.422;2023-12-22T04:09:33;16.00;13.00;5.00
65574;PMS5003;73096;55.050;73.422;2023-12-22T04:12:36;15.75;13.00;5.00
65574;PMS5003;73096;55.050;73.422;2023-12-22T04:15:40;16.25;15.75;6.00
65574;PMS5003;73096;55.050;73.422;2023-12-22T04:18:43;19.75;16.25;6.25
65574;PMS5003;73096;55.050;73.422;2023-12-22T04:21:46;20.67;18.00;7.00
65574;PMS5003;73096;55.050;73.422;2023-12-22T04:24:50;17.00;16.75;6.00
65574;PMS5003;73096;55.050;73.422;2023-12-22T04:27:53;19.00;17.00;8.00
65574;PMS5003;73096;55.050;73.422;2023-12-22T04:30:56;20.00;18.00;7.00
65574;PMS5003;73096;55.050;73.422;2023-12-22T04:33:58;20.00;18.25;8.00
65574;PMS5003;73096;55.050;73.422;2023-12-22T04:37:02;21.67;20.00;10.00
65574;PMS5003;73096;55.050;73.422;2023-12-22T04:40:06;23.00;19.00;9.00
65574;PMS5003;73096;55.050;73.422;2023-12-22T04:43:08;22.75;20.00;10.00
65574;PMS5003;73096;55.050;73.422;2023-12-22T04:46:10;20.00;18.00;9.00
65574;PMS5003;73096;55.050;73.422;2023-12-22T04:49:12;21.00;19.67;9.67
65574;PMS5003;73096;55.050;73.422;2023-12-22T04:52:14;20.00;19.25;7.00
65574;PMS5003;73096;55.050;73.422;2023-12-22T04:55:16;18.00;17.00;6.00
65574;PMS5003;73096;55.050;73.422;2023-12-22T04:58:22;16.00;15.00;6.00
65574;PMS5003;73096;55.050;73.422;2023-12-22T05:01:34;17.00;15.00;6.25
65574;PMS5003;73096;55.050;73.422;2023-12-22T05:04:36;16.00;13.50;6.00
65574;PMS5003;73096;55.050;73.422;2023-12-22T05:07:38;17.00;15.00;6.67
65574;PMS5003;73096;55.050;73.422;2023-12-22T05:10:43;17.00;16.00;6.00
65574;PMS5003;73096;55.050;73.422;2023-12-22T05:13:46;17.00;16.00;5.00
65574;PMS5003;73096;55.050;73.422;2023-12-22T05:16:48;18.00;16.00;6.00
65574;PMS5003;73096;55.050;73.422;2023-12-22T05:19:51;16.75;14.50;5.00
65574;PMS5003;73096;55.050;73.422;2023-12-22T05:22:53;17.25;16.00;6.00
65574;PMS5003;73096;55.050;73.422;2023-12-22T05:25:57;15.00;14.00;5.00
65574;PMS5003;73096;55.050;73.422;2023-12-22T05:29:00;14.25;13.75;5.25
65574;PMS5003;73096;55.050;73.422;2023-12-22T05:32:03;15.25;13.50;5.00
65574;PMS5003;73096;55.050;73.422;2023-12-22T05:35:06;15.00;13.00;4.50
65574;PMS5003;73096;55.050;73.422;2023-12-22T05:38:09;14.50;13.00;4.00
65574;PMS5003;73096;55.050;73.422;2023-12-22T05:41:13;14.00;13.00;4.00
65574;PMS5003;73096;55.050;73.422;2023-12-22T05:44:16;12.00;11.50;4.50
65574;PMS5003;73096;55.050;73.422;2023-12-22T05:47:19;12.25;11.00;4.00
65574;PMS5003;73096;55.050;73.422;2023-12-22T05:50:21;12.75;10.00;3.00
65574;PMS5003;73096;55.050;73.422;2023-12-22T05:53:24;11.00;8.00;3.00
65574;PMS5003;73096;55.050;73.422;2023-12-22T05:56:27;9.50;6.00;3.00
65574;PMS5003;73096;55.050;73.422;2023-12-22T05:59:30;7.00;5.00;1.00
65574;PMS5003;73096;55.050;73.422;2023-12-22T06:02:33;5.00;4.00;1.00
65574;PMS5003;73096;55.050;73.422;2023-12-22T06:05:36;4.00;4.00;2.00
65574;PMS5003;73096;55.050;73.422;2023-12-22T06:08:39;5.00;5.00;2.00
65574;PMS5003;73096;55.050;73.422;2023-12-22T06:11:41;6.00;5.00;1.00
65574;PMS5003;73096;55.050;73.422;2023-12-22T06:14:44;5.75;3.00;1.00
65574;PMS5003;73096;55.050;73.422;2023-12-22T06:17:46;4.67;3.67;0.00
65574;PMS5003;73096;55.050;73.422;2023-12-22T06:20:50;4.00;3.50;0.00
65574;PMS5003;73096;55.050;73.422;2023-12-22T06:23:52;3.67;3.00;0.00
65574;PMS5003;73096;55.050;73.422;2023-12-22T06:26:54;3.00;3.00;0.00
65574;PMS5003;73096;55.050;73.422;2023-12-22T06:29:56;3.00;3.00;0.00
65574;PMS5003;73096;55.050;73.422;2023-12-22T06:32:59;3.00;3.00;0.00
65574;PMS5003;73096;55.050;73.422;2023-12-22T06:36:01;3.00;2.00;0.00
65574;PMS5003;73096;55.050;73.422;2023-12-22T06:39:04;2.00;2.00;0.00
65574;PMS5003;73096;55.050;73.422;2023-12-22T06:42:06;1.00;1.00;0.00
65574;PMS5003;73096;55.050;73.422;2023-12-22T06:45:13;3.00;3.00;0.00
65574;PMS5003;73096;55.050;73.422;2023-12-22T06:48:16;2.50;2.00;0.00
65574;PMS5003;73096;55.050;73.422;2023-12-22T06:51:26;3.00;1.00;0.00
65574;PMS5003;73096;55.050;73.422;2023-12-22T06:54:28;2.67;2.67;0.00
65574;PMS5003;73096;55.050;73.422;2023-12-22T06:57:31;2.75;2.00;0.00
65574;PMS5003;73096;55.050;73.422;2023-12-22T07:00:33;2.00;1.00;0.00
65574;PMS5003;73096;55.050;73.422;2023-12-22T07:03:37;2.00;2.00;0.00
65574;PMS5003;73096;55.050;73.422;2023-12-22T07:06:39;3.00;3.00;0.00
65574;PMS5003;73096;55.050;73.422;2023-12-22T07:09:42;2.00;1.00;0.00
65574;PMS5003;73096;55.050;73.422;2023-12-22T07:12:44;3.00;3.00;0.00
65574;PMS5003;73096;55.050;73.422;2023-12-22T07:15:47;2.00;2.00;0.00
65574;PMS5003;73096;55.050;73.422;2023-12-22T07:18:50;2.00;2.00;0.00
65574;PMS5003;73096;55.050;73.422;2023-12-22T07:21:53;4.00;3.67;0.00
65574;PMS5003;73096;55.050;73.422;2023-12-22T07:24:55;2.75;2.00;0.00
65574;PMS5003;73096;55.050;73.422;2023-12-22T07:27:58;3.00;3.00;0.00
65574;PMS5003;73096;55.050;73.422;2023-12-22T07:31:00;4.00;2.00;0.00
65574;PMS5003;73096;55.050;73.422;2023-12-22T07:34:03;3.00;0.00;0.00
65574;PMS5003;73096;55.050;73.422;2023-12-22T07:37:05;2.67;2.00;0.00
65574;PMS5003;73096;55.050;73.422;2023-12-22T07:40:08;1.25;1.00;0.00
65574;PMS5003;73096;55.050;73.422;2023-12-22T07:43:10;2.25;2.25;0.00
65574;PMS5003;73096;55.050;73.422;2023-12-22T07:46:16;2.00;2.00;0.00
65574;PMS5003;73096;55.050;73.422;2023-12-22T07:49:18;3.00;2.00;0.00
65574;PMS5003;73096;55.050;73.422;2023-12-22T07:52:20;3.33;3.00;0.00
65574;PMS5003;73096;55.050;73.422;2023-12-22T07:55:23;3.67;3.67;0.00
65574;PMS5003;73096;55.050;73.422;2023-12-22T07:58:25;2.00;2.00;0.00
65574;PMS5003;73096;55.050;73.422;2023-12-22T08:01:27;3.00;2.00;0.00
65574;PMS5003;73096;55.050;73.422;2023-12-22T08:04:30;4.00;4.00;0.00
65574;PMS5003;73096;55.050;73.422;2023-12-22T08:07:32;5.33;5.00;0.00
65574;PMS5003;73096;55.050;73.422;2023-12-22T08:10:35;5.00;3.67;0.00
65574;PMS5003;73096;55.050;73.422;2023-12-22T08:13:37;3.00;3.00;0.00
65574;PMS5003;73096;55.050;73.422;2023-12-22T08:16:39;2.67;2.67;0.00
65574;PMS5003;73096;55.050;73.422;2023-12-22T08:23:17;3.00;3.00;0.00
65574;PMS5003;73096;55.050;73.422;2023-12-22T08:26:23;3.00;3.00;0.00
65574;PMS5003;73096;55.050;73.422;2023-12-22T08:29:25;3.67;3.33;0.33
65574;PMS5003;73096;55.050;73.422;2023-12-22T08:32:28;4.00;3.50;0.00
65574;PMS5003;73096;55.050;73.422;2023-12-22T08:35:31;3.00;3.00;0.00
65574;PMS5003;73096;55.050;73.422;2023-12-22T08:38:34;4.00;4.00;0.00
65574;PMS5003;73096;55.050;73.422;2023-12-22T08:41:38;1.00;1.00;0.00
65574;PMS5003;73096;55.050;73.422;2023-12-22T08:44:41;4.00;3.67;0.00
65574;PMS5003;73096;55.050;73.422;2023-12-22T08:47:43;4.75;4.00;1.00
65574;PMS5003;73096;55.050;73.422;2023-12-22T08:50:45;4.00;3.50;1.00
65574;PMS5003;73096;55.050;73.422;2023-12-22T08:53:47;3.00;3.00;1.00
65574;PMS5003;73096;55.050;73.422;2023-12-22T08:56:53;3.00;3.00;1.00
65574;PMS5003;73096;55.050;73.422;2023-12-22T08:59:55;3.67;3.00;0.00
65574;PMS5003;73096;55.050;73.422;2023-12-22T09:02:57;4.00;3.00;0.00
65574;PMS5003;73096;55.050;73.422;2023-12-22T09:06:00;7.00;5.00;0.75
65574;PMS5003;73096;55.050;73.422;2023-12-22T09:09:03;5.67;5.00;2.00
65574;PMS5003;73096;55.050;73.422;2023-12-22T09:12:09;5.25;4.00;2.00
65574;PMS5003;73096;55.050;73.422;2023-12-22T09:15:12;3.50;3.00;1.00
65574;PMS5003;73096;55.050;73.422;2023-12-22T09:18:14;3.75;3.00;1.00
65574;PMS5003;73096;55.050;73.422;2023-12-22T09:21:17;3.00;3.00;1.00
65574;PMS5003;73096;55.050;73.422;2023-12-22T09:24:19;4.00;4.00;0.00
65574;PMS5003;73096;55.050;73.422;2023-12-22T09:27:22;3.00;3.00;1.00
65574;PMS5003;73096;55.050;73.422;2023-12-22T09:30:25;3.00;3.00;0.00
65574;PMS5003;73096;55.050;73.422;2023-12-22T09:33:27;6.00;5.00;1.00
65574;PMS5003;73096;55.050;73.422;2023-12-22T09:36:29;6.00;6.00;1.00
65574;PMS5003;73096;55.050;73.422;2023-12-22T09:39:32;6.00;6.00;1.00
65574;PMS5003;73096;55.050;73.422;2023-12-22T09:42:34;4.00;3.50;1.00
65574;PMS5003;73096;55.050;73.422;2023-12-22T09:45:36;4.25;4.00;2.00
65574;PMS5003;73096;55.050;73.422;2023-12-22T09:48:39;3.00;3.00;1.00
65574;PMS5003;73096;55.050;73.422;2023-12-22T09:51:42;3.00;3.00;2.33
65574;PMS5003;73096;55.050;73.422;2023-12-22T09:54:46;2.00;2.00;0.00
65574;PMS5003;73096;55.050;73.422;2023-12-22T09:57:52;4.00;3.00;0.00
65574;PMS5003;73096;55.050;73.422;2023-12-22T10:00:55;4.00;3.25;0.00
65574;PMS5003;73096;55.050;73.422;2023-12-22T10:03:58;6.00;5.00;0.00
65574;PMS5003;73096;55.050;73.422;2023-12-22T10:07:00;5.00;4.00;1.00
65574;PMS5003;73096;55.050;73.422;2023-12-22T10:10:04;3.00;3.00;1.00
65574;PMS5003;73096;55.050;73.422;2023-12-22T10:13:07;2.00;2.00;0.00
65574;PMS5003;73096;55.050;73.422;2023-12-22T10:16:12;3.00;3.00;0.00
65574;PMS5003;73096;55.050;73.422;2023-12-22T10:19:14;3.00;2.50;0.00
65574;PMS5003;73096;55.050;73.422;2023-12-22T10:22:17;3.00;3.00;0.00
65574;PMS5003;73096;55.050;73.422;2023-12-22T10:25:20;3.00;3.00;0.00
65574;PMS5003;73096;55.050;73.422;2023-12-22T10:28:23;6.00;6.00;2.00
65574;PMS5003;73096;55.050;73.422;2023-12-22T10:31:27;6.50;6.50;2.50
65574;PMS5003;73096;55.050;73.422;2023-12-22T10:34:40;6.00;6.00;2.00
65574;PMS5003;73096;55.050;73.422;2023-12-22T10:37:43;4.00;3.00;1.00
65574;PMS5003;73096;55.050;73.422;2023-12-22T10:40:48;6.00;5.00;2.00
65574;PMS5003;73096;55.050;73.422;2023-12-22T10:43:51;6.00;6.00;2.00
65574;PMS5003;73096;55.050;73.422;2023-12-22T10:46:54;4.00;4.00;2.00
65574;PMS5003;73096;55.050;73.422;2023-12-22T10:49:56;6.50;6.00;3.00
65574;PMS5003;73096;55.050;73.422;2023-12-22T10:52:59;8.75;8.50;3.00
65574;PMS5003;73096;55.050;73.422;2023-12-22T10:56:03;10.00;8.00;3.00
65574;PMS5003;73096;55.050;73.422;2023-12-22T10:59:05;9.00;7.00;3.00
65574;PMS5003;73096;55.050;73.422;2023-12-22T11:02:09;11.75;10.00;5.00
65574;PMS5003;73096;55.050;73.422;2023-12-22T11:05:15;13.00;11.00;5.00
65574;PMS5003;73096;55.050;73.422;2023-12-22T11:08:20;16.25;13.25;5.75
65574;PMS5003;73096;55.050;73.422;2023-12-22T11:11:30;16.75;15.00;7.00
65574;PMS5003;73096;55.050;73.422;2023-12-22T11:14:36;15.50;14.75;7.00
65574;PMS5003;73096;55.050;73.422;2023-12-22T11:17:41;14.00;14.00;6.00
65574;PMS5003;73096;55.050;73.422;2023-12-22T11:20:45;16.00;13.00;6.00
65574;PMS5003;73096;55.050;73.422;2023-12-22T11:23:50;14.00;13.75;5.25
65574;PMS5003;73096;55.050;73.422;2023-12-22T11:26:54;15.00;13.00;5.00
65574;PMS5003;73096;55.050;73.422;2023-12-22T11:30:01;13.00;10.00;3.00
65574;PMS5003;73096;55.050;73.422;2023-12-22T11:33:04;13.50;10.00;5.00
65574;PMS5003;73096;55.050;73.422;2023-12-22T11:36:08;13.00;10.00;4.25
65574;PMS5003;73096;55.050;73.422;2023-12-22T11:39:13;16.00;13.00;6.00
65574;PMS5003;73096;55.050;73.422;2023-12-22T11:42:19;18.50;14.75;6.25
65574;PMS5003;73096;55.050;73.422;2023-12-22T11:45:24;17.75;16.50;7.00
65574;PMS5003;73096;55.050;73.422;2023-12-22T11:48:28;16.00;15.50;6.00
65574;PMS5003;73096;55.050;73.422;2023-12-22T11:51:32;16.00;15.00;6.50
65574;PMS5003;73096;55.050;73.422;2023-12-22T11:57:59;15.00;15.00;6.50
65574;PMS5003;73096;55.050;73.422;2023-12-22T12:01:23;16.00;13.50;6.00
65574;PMS5003;73096;55.050;73.422;2023-12-22T12:04:27;16.00;16.00;6.00
65574;PMS5003;73096;55.050;73.422;2023-12-22T12:07:38;17.00;16.00;7.25
65574;PMS5003;73096;55.050;73.422;2023-12-22T12:10:51;18.00;16.00;7.00
65574;PMS5003;73096;55.050;73.422;2023-12-22T12:13:57;18.50;17.50;8.00
65574;PMS5003;73096;55.050;73.422;2023-12-22T12:17:10;17.50;16.00;7.00
65574;PMS5003;73096;55.050;73.422;2023-12-22T12:20:17;20.00;19.00;9.00
65574;PMS5003;73096;55.050;73.422;2023-12-22T12:23:25;18.25;16.00;6.75
65574;PMS5003;73096;55.050;73.422;2023-12-22T12:26:29;18.75;15.75;7.00
65574;PMS5003;73096;55.050;73.422;2023-12-22T12:29:51;17.00;16.00;7.00
65574;PMS5003;73096;55.050;73.422;2023-12-22T12:32:53;18.75;17.50;9.25
65574;PMS5003;73096;55.050;73.422;2023-12-22T12:35:56;20.00;17.50;8.00
65574;PMS5003;73096;55.050;73.422;2023-12-22T12:39:01;16.00;15.50;6.50
65574;PMS5003;73096;55.050;73.422;2023-12-22T12:42:10;16.00;14.75;6.00
65574;PMS5003;73096;55.050;73.422;2023-12-22T12:45:26;17.00;14.50;6.50
65574;PMS5003;73096;55.050;73.422;2023-12-22T12:48:29;18.00;15.00;6.75
65574;PMS5003;73096;55.050;73.422;2023-12-22T12:51:35;18.00;16.00;8.00
65574;PMS5003;73096;55.050;73.422;2023-12-22T12:54:54;18.00;18.00;9.00
65574;PMS5003;73096;55.050;73.422;2023-12-22T12:57:58;19.00;19.00;11.67
65574;PMS5003;73096;55.050;73.422;2023-12-22T13:01:13;24.25;21.25;12.00
65574;PMS5003;73096;55.050;73.422;2023-12-22T13:04:37;24.00;22.00;13.33
65574;PMS5003;73096;55.050;73.422;2023-12-22T13:07:42;27.00;23.50;15.00
65574;PMS5003;73096;55.050;73.422;2023-12-22T13:10:59;29.50;24.00;14.50
65574;PMS5003;73096;55.050;73.422;2023-12-22T13:14:01;29.00;24.00;16.00
65574;PMS5003;73096;55.050;73.422;2023-12-22T13:17:05;27.67;23.00;15.00
65574;PMS5003;73096;55.050;73.422;2023-12-22T13:20:08;24.00;22.00;15.00
65574;PMS5003;73096;55.050;73.422;2023-12-22T13:23:11;22.00;20.67;13.00
65574;PMS5003;73096;55.050;73.422;2023-12-22T13:26:21;19.00;18.00;11.00
65574;PMS5003;73096;55.050;73.422;2023-12-22T13:29:23;17.00;16.50;8.00
65574;PMS5003;73096;55.050;73.422;2023-12-22T13:32:26;16.25;14.25;6.00
65574;PMS5003;73096;55.050;73.422;2023-12-22T13:35:30;20.00;15.00;7.00
65574;PMS5003;73096;55.050;73.422;2023-12-22T13:38:34;16.00;15.00;8.00
65574;PMS5003;73096;55.050;73.422;2023-12-22T13:41:52;15.25;15.00;8.50
65574;PMS5003;73096;55.050;73.422;2023-12-22T13:44:55;15.75;15.00;6.75
65574;PMS5003;73096;55.050;73.422;2023-12-22T13:47:59;19.00;17.00;8.00
65574;PMS5003;73096;55.050;73.422;2023-12-22T13:51:21;19.00;16.00;7.75
65574;PMS5003;73096;55.050;73.422;2023-12-22T13:54:31;18.00;17.00;8.67
65574;PMS5003;73096;55.050;73.422;2023-12-22T13:57:39;17.67;17.00;9.00
65574;PMS5003;73096;55.050;73.422;2023-12-22T14:00:41;18.00;18.00;10.00
65574;PMS5003;73096;55.050;73.422;2023-12-22T14:03:51;18.00;16.00;9.50
65574;PMS5003;73096;55.050;73.422;2023-12-22T14:06:53;20.00;18.75;8.50
65574;PMS5003;73096;55.050;73.422;2023-12-22T14:09:56;19.33;19.00;8.00
65574;PMS5003;73096;55.050;73.422;2023-12-22T14:12:58;18.75;18.00;9.00
65574;PMS5003;73096;55.050;73.422;2023-12-22T14:16:00;18.00;16.00;9.00
65574;PMS5003;73096;55.050;73.422;2023-12-22T14:19:04;19.00;15.33;7.33
65574;PMS5003;73096;55.050;73.422;2023-12-22T14:22:06;17.00;15.00;6.75
65574;PMS5003;73096;55.050;73.422;2023-12-22T14:25:08;16.00;15.00;5.00
65574;PMS5003;73096;55.050;73.422;2023-12-22T14:28:11;16.00;14.00;5.00
65574;PMS5003;73096;55.050;73.422;2023-12-22T14:31:15;15.00;13.00;6.00
65574;PMS5003;73096;55.050;73.422;2023-12-22T14:34:18;15.00;12.75;5.00
65574;PMS5003;73096;55.050;73.422;2023-12-22T14:37:22;15.75;13.75;5.50
65574;PMS5003;73096;55.050;73.422;2023-12-22T14:40:25;12.00;11.25;5.00
65574;PMS5003;73096;55.050;73.422;2023-12-22T14:43:27;12.00;11.00;5.00
65574;PMS5003;73096;55.050;73.422;2023-12-22T14:46:29;17.00;13.75;6.75
65574;PMS5003;73096;55.050;73.422;2023-12-22T14:49:31;15.00;13.00;5.00
65574;PMS5003;73096;55.050;73.422;2023-12-22T14:52:34;15.00;13.00;6.00
65574;PMS5003;73096;55.050;73.422;2023-12-22T14:55:37;15.00;12.00;5.00
65574;PMS5003;73096;55.050;73.422;2023-12-22T14:58:40;15.00;13.00;6.00
65574;PMS5003;73096;55.050;73.422;2023-12-22T15:01:44;15.00;14.00;6.00
65574;PMS5003;73096;55.050;73.422;2023-12-22T15:04:48;17.00;16.25;8.00
65574;PMS5003;73096;55.050;73.422;2023-12-22T15:07:51;18.67;16.67;7.00
65574;PMS5003;73096;55.050;73.422;2023-12-22T15:10:56;16.00;15.00;6.25
65574;PMS5003;73096;55.050;73.422;2023-12-22T15:13:58;19.00;18.00;8.50
65574;PMS5003;73096;55.050;73.422;2023-12-22T15:17:01;20.50;17.25;8.00
65574;PMS5003;73096;55.050;73.422;2023-12-22T15:20:04;18.00;17.00;9.33
65574;PMS5003;73096;55.050;73.422;2023-12-22T15:23:09;20.75;19.00;12.00
65574;PMS5003;73096;55.050;73.422;2023-12-22T15:26:32;21.00;19.00;11.50
65574;PMS5003;73096;55.050;73.422;2023-12-22T15:29:35;19.00;16.25;10.25
65574;PMS5003;73096;55.050;73.422;2023-12-22T15:32:37;16.00;16.00;9.25
65574;PMS5003;73096;55.050;73.422;2023-12-22T15:35:42;19.75;17.00;10.00
65574;PMS5003;73096;55.050;73.422;2023-12-22T15:38:45;19.25;18.00;10.00
65574;PMS5003;73096;55.050;73.422;2023-12-22T15:41:48;19.00;18.00;10.00
65574;PMS5003;73096;55.050;73.422;2023-12-22T15:44:50;19.00;16.00;7.25
65574;PMS5003;73096;55.050;73.422;2023-12-22T15:47:53;18.50;15.00;7.00
65574;PMS5003;73096;55.050;73.422;2023-12-22T15:50:57;17.00;16.00;6.00
65574;PMS5003;73096;55.050;73.422;2023-12-22T15:54:02;18.25;15.75;8.00
65574;PMS5003;73096;55.050;73.422;2023-12-22T15:57:06;16.00;13.33;6.00
65574;PMS5003;73096;55.050;73.422;2023-12-22T16:00:09;16.75;13.25;6.00
65574;PMS5003;73096;55.050;73.422;2023-12-22T16:03:13;17.50;15.00;6.50
65574;PMS5003;73096;55.050;73.422;2023-12-22T16:06:17;14.00;14.00;5.00
65574;PMS5003;73096;55.050;73.422;2023-12-22T16:09:21;14.00;12.75;5.00
65574;PMS5003;73096;55.050;73.422;2023-12-22T16:12:25;15.00;13.75;5.25
65574;PMS5003;73096;55.050;73.422;2023-12-22T16:15:28;19.00;16.00;7.00
65574;PMS5003;73096;55.050;73.422;2023-12-22T16:18:31;17.00;15.67;7.00
65574;PMS5003;73096;55.050;73.422;2023-12-22T16:21:39;19.00;17.00;8.00
65574;PMS5003;73096;55.050;73.422;2023-12-22T16:24:42;18.00;18.00;8.00
65574;PMS5003;73096;55.050;73.422;2023-12-22T16:27:46;18.00;17.00;9.00
65574;PMS5003;73096;55.050;73.422;2023-12-22T16:30:48;19.00;17.00;6.50
65574;PMS5003;73096;55.050;73.422;2023-12-22T16:33:50;16.25;14.00;5.00
65574;PMS5003;73096;55.050;73.422;2023-12-22T16:36:52;15.00;14.00;5.00
65574;PMS5003;73096;55.050;73.422;2023-12-22T16:39:55;13.00;11.00;5.00
65574;PMS5003;73096;55.050;73.422;2023-12-22T16:43:00;9.25;7.25;2.25
65574;PMS5003;73096;55.050;73.422;2023-12-22T16:46:03;6.00;6.00;2.00
65574;PMS5003;73096;55.050;73.422;2023-12-22T16:49:09;5.75;4.50;3.00
65574;PMS5003;73096;55.050;73.422;2023-12-22T16:52:12;5.75;5.75;2.25
65574;PMS5003;73096;55.050;73.422;2023-12-22T16:55:16;7.00;6.00;2.33
65574;PMS5003;73096;55.050;73.422;2023-12-22T16:58:21;6.00;6.00;3.00
65574;PMS5003;73096;55.050;73.422;2023-12-22T17:01:23;5.00;5.00;2.00
65574;PMS5003;73096;55.050;73.422;2023-12-22T17:04:28;6.00;5.00;2.00
65574;PMS5003;73096;55.050;73.422;2023-12-22T17:07:30;4.50;3.00;1.00
65574;PMS5003;73096;55.050;73.422;2023-12-22T17:10:34;5.00;5.00;0.25
65574;PMS5003;73096;55.050;73.422;2023-12-22T17:13:36;4.00;4.00;1.00
65574;PMS5003;73096;55.050;73.422;2023-12-22T17:16:39;4.00;4.00;1.00
65574;PMS5003;73096;55.050;73.422;2023-12-22T17:19:42;5.00;5.00;1.00
65574;PMS5003;73096;55.050;73.422;2023-12-22T17:22:44;3.75;3.25;1.00
65574;PMS5003;73096;55.050;73.422;2023-12-22T17:25:47;4.25;3.25;1.00
65574;PMS5003;73096;55.050;73.422;2023-12-22T17:28:50;6.00;6.00;2.00